createdAt,value
2023-02-22T00:01:34.934Z,6.19
2023-02-22T00:04:04.607Z,6.16
2023-02-22T00:06:32.297Z,6.18
2023-02-22T00:09:01.697Z,6.20
2023-02-22T00:11:30.864Z,6.19
2023-02-22T00:13:57.852Z,6.17
2023-02-22T00:16:26.179Z,6.14
2023-02-22T00:18:53.293Z,6.11
2023-02-22T00:21:20.426Z,6.13
2023-02-22T00:23:48.235Z,6.15
2023-02-22T00:26:19.284Z,6.16
2023-02-22T00:28:48.768Z,6.16
2023-02-22T00:31:16.190Z,6.20
2023-02-22T00:33:43.832Z,6.25
2023-02-22T00:36:12.928Z,6.26
2023-02-22T00:38:41.134Z,6.27
2023-02-22T00:41:08.944Z,6.26
2023-02-22T00:43:36.073Z,6.21
2023-02-22T00:46:03.529Z,6.19
2023-02-22T00:48:30.487Z,6.13
2023-02-22T00:50:57.265Z,6.11
2023-02-22T00:53:25.610Z,6.08
2023-02-22T00:55:53.618Z,6.06
2023-02-22T00:58:21.901Z,6.02
2023-02-22T01:00:50.145Z,5.99
2023-02-22T01:03:18.558Z,6.00
2023-02-22T01:05:46.088Z,6.00
2023-02-22T01:08:15.571Z,6.02
2023-02-22T01:10:43.224Z,6.02
2023-02-22T01:13:11.556Z,6.11
2023-02-22T01:15:41.071Z,6.17
2023-02-22T01:18:08.562Z,6.23
2023-02-22T01:20:35.941Z,6.27
2023-02-22T01:23:05.999Z,6.30
2023-02-22T01:25:34.060Z,6.31
2023-02-22T01:28:03.155Z,6.32
2023-02-22T01:30:34.085Z,6.33
2023-02-22T01:33:02.732Z,6.33
2023-02-22T01:35:33.735Z,6.34
2023-02-22T01:38:02.317Z,6.36
2023-02-22T01:40:34.964Z,6.33
2023-02-22T01:43:14.159Z,6.34
2023-02-22T01:45:49.527Z,6.36
2023-02-22T01:48:22.619Z,6.36
2023-02-22T01:50:59.105Z,6.34
2023-02-22T01:53:38.336Z,6.35
2023-02-22T01:56:05.947Z,6.32
2023-02-22T01:58:35.044Z,6.31
2023-02-22T02:01:02.046Z,6.32
2023-02-22T02:03:32.631Z,6.30
2023-02-22T02:06:03.792Z,6.27
2023-02-22T02:08:38.896Z,6.25
2023-02-22T02:11:09.208Z,6.20
2023-02-22T02:13:36.938Z,6.14
2023-02-22T02:16:04.382Z,6.13
2023-02-22T02:18:32.067Z,6.13
2023-02-22T02:21:21.419Z,6.14
2023-02-22T02:23:57.099Z,6.12
2023-02-22T02:26:48.567Z,6.15
2023-02-22T02:29:35.723Z,6.16
2023-02-22T02:32:18.890Z,6.15
2023-02-22T02:34:54.602Z,6.14
2023-02-22T02:37:48.588Z,6.12
2023-02-22T02:40:21.493Z,6.16
2023-02-22T02:43:09.896Z,6.20
2023-02-22T02:45:41.555Z,6.17
2023-02-22T02:48:13.253Z,6.20
2023-02-22T02:50:46.356Z,6.19
2023-02-22T02:53:18.669Z,6.16
2023-02-22T02:55:45.515Z,6.18
2023-02-22T02:58:22.516Z,6.17
2023-02-22T03:00:54.910Z,6.14
2023-02-22T03:03:21.820Z,6.12
2023-02-22T03:06:22.733Z,6.14
2023-02-22T03:08:52.082Z,6.09
2023-02-22T03:11:26.602Z,6.09
2023-02-22T03:14:17.347Z,6.07
2023-02-22T03:17:08.765Z,6.07
2023-02-22T03:19:47.144Z,6.03
2023-02-22T03:22:17.001Z,6.07
2023-02-22T03:24:53.295Z,6.02
2023-02-22T03:27:34.631Z,6.00
2023-02-22T03:30:06.796Z,5.96
2023-02-22T03:32:39.188Z,5.96
2023-02-22T03:35:14.267Z,5.89
2023-02-22T03:37:46.063Z,5.88
2023-02-22T03:40:25.556Z,5.87
2023-02-22T03:43:06.340Z,5.89
2023-02-22T03:45:36.249Z,5.86
2023-02-22T03:48:16.481Z,5.80
2023-02-22T03:50:43.849Z,5.74
2023-02-22T03:53:11.195Z,5.69
2023-02-22T03:55:40.133Z,5.65
2023-02-22T03:58:12.316Z,5.56
2023-02-22T04:00:43.870Z,5.53
2023-02-22T04:03:11.220Z,5.44
2023-02-22T04:05:39.132Z,5.36
2023-02-22T04:08:05.944Z,5.31
2023-02-22T04:10:33.034Z,5.19
2023-02-22T04:13:00.216Z,5.13
2023-02-22T04:15:27.330Z,5.08
2023-02-22T04:17:59.490Z,5.05
2023-02-22T04:20:26.612Z,5.03
2023-02-22T04:22:56.435Z,5.00
2023-02-22T04:25:24.622Z,4.94
2023-02-22T04:27:53.351Z,4.89
2023-02-22T04:30:29.638Z,4.85
2023-02-22T04:32:57.141Z,4.81
2023-02-22T04:35:24.285Z,4.78
2023-02-22T04:37:52.327Z,4.79
2023-02-22T04:40:19.457Z,4.78
2023-02-22T04:42:47.691Z,4.73
2023-02-22T04:45:14.895Z,4.70
2023-02-22T04:47:41.894Z,4.68
2023-02-22T04:50:10.738Z,4.69
2023-02-22T04:52:37.701Z,4.69
2023-02-22T04:55:06.283Z,4.72
2023-02-22T04:57:33.691Z,4.74
2023-02-22T05:00:01.194Z,4.79
2023-02-22T05:02:28.946Z,4.73
2023-02-22T05:04:56.290Z,4.73
2023-02-22T05:07:23.531Z,4.72
2023-02-22T05:09:50.365Z,4.71
2023-02-22T05:12:17.383Z,4.70
2023-02-22T05:14:44.469Z,4.70
2023-02-22T05:17:11.495Z,4.70
2023-02-22T05:19:42.878Z,4.71
2023-02-22T05:22:11.487Z,4.70
2023-02-22T05:24:39.221Z,4.70
2023-02-22T05:27:06.543Z,4.70
2023-02-22T05:29:34.286Z,4.68
2023-02-22T05:32:05.033Z,4.71
2023-02-22T05:34:33.439Z,4.75
2023-02-22T05:37:00.654Z,4.76
2023-02-22T05:39:28.342Z,4.77
2023-02-22T05:41:56.252Z,4.79
2023-02-22T05:44:23.622Z,4.79
2023-02-22T05:46:50.933Z,4.80
2023-02-22T05:49:21.320Z,4.84
2023-02-22T05:51:52.959Z,4.85
2023-02-22T05:54:23.425Z,4.87
2023-02-22T05:56:54.718Z,4.91
2023-02-22T05:59:24.327Z,4.97
2023-02-22T06:01:52.900Z,5.02
2023-02-22T06:04:20.798Z,5.04
2023-02-22T06:06:49.063Z,5.06
2023-02-22T06:09:17.680Z,5.08
2023-02-22T06:11:45.439Z,5.11
2023-02-22T06:14:13.336Z,5.15
2023-02-22T06:16:40.779Z,5.16
2023-02-22T06:19:08.286Z,5.20
2023-02-22T06:21:35.364Z,5.26
2023-02-22T06:24:05.157Z,5.33
2023-02-22T06:26:36.350Z,5.39
2023-02-22T06:29:06.205Z,5.47
2023-02-22T06:31:34.374Z,5.52
2023-02-22T06:34:04.122Z,5.60
2023-02-22T06:36:33.250Z,5.62
2023-02-22T06:39:01.800Z,5.66
2023-02-22T06:41:31.676Z,5.70
2023-02-22T06:43:59.736Z,5.72
2023-02-22T06:46:30.084Z,5.74
2023-02-22T06:49:00.350Z,5.81
2023-02-22T06:51:28.728Z,5.86
2023-02-22T06:53:56.028Z,5.92
2023-02-22T06:56:25.224Z,6.01
2023-02-22T06:58:54.107Z,6.01
2023-02-22T07:01:22.790Z,6.05
2023-02-22T07:03:50.175Z,6.12
2023-02-22T07:06:17.459Z,6.19
2023-02-22T07:08:45.133Z,6.33
2023-02-22T07:11:12.184Z,6.47
2023-02-22T07:13:39.759Z,6.53
2023-02-22T07:16:07.256Z,6.59
2023-02-22T07:18:36.770Z,6.66
2023-02-22T07:21:05.482Z,6.70
2023-02-22T07:23:33.368Z,6.73
2023-02-22T07:26:01.681Z,6.78
2023-02-22T07:28:29.035Z,6.85
2023-02-22T07:30:56.461Z,6.81
2023-02-22T07:33:29.309Z,6.85
2023-02-22T07:35:58.937Z,6.83
2023-02-22T07:38:27.194Z,6.91
2023-02-22T07:40:57.465Z,6.97
2023-02-22T07:43:28.789Z,6.97
2023-02-22T07:46:02.911Z,6.98
2023-02-22T07:48:31.681Z,6.98
2023-02-22T07:51:00.069Z,6.96
2023-02-22T07:53:30.358Z,6.95
2023-02-22T07:55:58.769Z,7.01
2023-02-22T07:58:29.724Z,7.05
2023-02-22T08:00:58.380Z,7.01
2023-02-22T08:03:26.273Z,7.06
2023-02-22T08:06:00.058Z,7.07
2023-02-22T08:08:27.616Z,7.14
2023-02-22T08:10:55.652Z,7.16
2023-02-22T08:13:24.493Z,7.15
2023-02-22T08:15:56.305Z,7.14
2023-02-22T08:18:25.684Z,7.15
2023-02-22T08:20:53.481Z,7.11
2023-02-22T08:23:25.290Z,7.16
2023-02-22T08:25:55.744Z,7.24
2023-02-22T08:28:24.508Z,7.22
2023-02-22T08:30:52.794Z,7.19
2023-02-22T08:33:20.816Z,7.23
2023-02-22T08:35:49.025Z,7.19
2023-02-22T08:38:17.972Z,7.20
2023-02-22T08:40:45.146Z,7.25
2023-02-22T08:43:13.814Z,7.37
2023-02-22T08:45:42.306Z,7.46
2023-02-22T08:48:09.635Z,7.57
2023-02-22T08:50:37.852Z,7.64
2023-02-22T08:53:07.173Z,7.68
2023-02-22T08:55:39.844Z,7.71
2023-02-22T08:58:09.409Z,7.75
2023-02-22T09:00:38.750Z,7.77
2023-02-22T09:03:11.245Z,7.71
2023-02-22T09:05:39.470Z,7.70
2023-02-22T09:08:07.518Z,7.76
2023-02-22T09:10:36.577Z,7.77
2023-02-22T09:13:05.558Z,7.73
2023-02-22T09:15:35.776Z,7.82
2023-02-22T09:18:05.226Z,7.80
2023-02-22T09:20:35.580Z,7.80
2023-02-22T09:23:05.508Z,7.84
2023-02-22T09:25:33.994Z,7.92
2023-02-22T09:28:01.964Z,8.00
2023-02-22T09:30:36.414Z,8.09
2023-02-22T09:33:10.780Z,8.11
2023-02-22T09:35:45.759Z,8.12
2023-02-22T09:38:17.872Z,8.15
2023-02-22T09:41:12.435Z,8.21
2023-02-22T09:43:46.046Z,8.23
2023-02-22T09:46:20.954Z,8.17
2023-02-22T09:49:14.634Z,8.29
2023-02-22T09:51:53.862Z,8.28
2023-02-22T09:54:38.267Z,8.35
2023-02-22T09:57:12.068Z,8.46
2023-02-22T09:59:45.749Z,8.42
2023-02-22T10:02:26.408Z,8.50
2023-02-22T10:05:05.636Z,8.53
2023-02-22T10:07:38.867Z,8.45
2023-02-22T10:10:13.378Z,8.38
2023-02-22T10:12:43.310Z,8.53
2023-02-22T10:15:31.804Z,8.44
2023-02-22T10:18:10.752Z,8.48
2023-02-22T10:20:44.464Z,8.36
2023-02-22T10:23:21.041Z,8.32
2023-02-22T10:25:56.911Z,8.46
2023-02-22T10:28:41.156Z,8.49
2023-02-22T10:31:20.282Z,8.42
2023-02-22T10:33:57.005Z,8.16
2023-02-22T10:36:26.500Z,8.13
2023-02-22T10:39:02.482Z,8.31
2023-02-22T10:41:32.641Z,8.07
2023-02-22T10:44:02.455Z,8.02
2023-02-22T10:46:33.275Z,8.20
2023-02-22T10:49:06.951Z,8.18
2023-02-22T10:51:35.273Z,8.34
2023-02-22T10:54:24.986Z,8.13
2023-02-22T10:56:58.009Z,8.26
2023-02-22T10:59:30.508Z,8.26
2023-02-22T11:01:58.512Z,8.18
2023-02-22T11:04:25.755Z,8.08
2023-02-22T11:06:58.631Z,8.07
2023-02-22T11:09:28.770Z,8.09
2023-02-22T11:12:11.811Z,8.06
2023-02-22T11:14:40.715Z,8.02
2023-02-22T11:17:12.531Z,8.12
2023-02-22T11:19:47.440Z,8.26
2023-02-22T11:22:28.814Z,8.14
2023-02-22T11:25:00.726Z,8.05
2023-02-22T11:27:34.002Z,8.11
2023-02-22T11:30:21.266Z,7.99
2023-02-22T11:32:57.752Z,7.96
2023-02-22T11:35:27.973Z,8.02
2023-02-22T11:38:17.726Z,8.03
2023-02-22T11:40:47.943Z,8.15
2023-02-22T11:43:18.986Z,8.28
2023-02-22T11:46:24.348Z,8.49
2023-02-22T11:48:58.864Z,8.50
2023-02-22T11:51:37.366Z,8.71
2023-02-22T11:54:28.268Z,8.57
2023-02-22T11:57:16.267Z,8.59
2023-02-22T11:59:55.983Z,8.57
2023-02-22T12:02:56.915Z,8.47
2023-02-22T12:06:09.285Z,8.53
2023-02-22T12:09:01.986Z,8.64
2023-02-22T12:11:39.936Z,8.54
2023-02-22T12:14:19.281Z,8.48
2023-02-22T12:17:13.263Z,8.48
2023-02-22T12:19:48.262Z,8.51
2023-02-22T12:22:23.102Z,8.24
2023-02-22T12:25:10.020Z,8.16
2023-02-22T12:27:51.400Z,8.24
2023-02-22T12:30:43.948Z,8.39
2023-02-22T12:33:17.156Z,8.26
2023-02-22T12:35:53.000Z,8.23
2023-02-22T12:38:26.975Z,8.22
2023-02-22T12:40:58.255Z,8.46
2023-02-22T12:43:40.604Z,8.33
2023-02-22T12:46:30.153Z,8.33
2023-02-22T12:49:20.352Z,8.36
2023-02-22T12:52:21.341Z,8.48
2023-02-22T12:55:02.031Z,8.35
2023-02-22T12:57:37.635Z,8.44
2023-02-22T13:00:16.629Z,8.47
2023-02-22T13:02:55.250Z,8.40
2023-02-22T13:05:23.229Z,8.45
2023-02-22T13:08:05.984Z,8.48
2023-02-22T13:11:01.741Z,8.52
2023-02-22T13:13:47.340Z,8.49
2023-02-22T13:16:57.772Z,8.68
2023-02-22T13:19:24.855Z,8.64
2023-02-22T13:21:59.040Z,8.62
2023-02-22T13:24:48.206Z,8.68
2023-02-22T13:27:46.606Z,8.54
2023-02-22T13:30:46.781Z,8.44
2023-02-22T13:33:42.199Z,8.55
2023-02-22T13:36:34.344Z,8.51
2023-02-22T13:39:21.647Z,8.41
2023-02-22T13:42:08.042Z,8.41
2023-02-22T13:45:07.538Z,8.36
2023-02-22T13:48:12.459Z,8.39
2023-02-22T13:51:01.092Z,8.37
2023-02-22T13:53:43.833Z,8.32
2023-02-22T13:56:14.493Z,8.27
2023-02-22T13:58:56.323Z,8.23
2023-02-22T14:01:46.794Z,8.10
2023-02-22T14:04:22.397Z,8.12
2023-02-22T14:06:51.562Z,8.14
2023-02-22T14:09:48.108Z,8.12
2023-02-22T14:12:47.971Z,8.15
2023-02-22T14:15:29.608Z,8.10
2023-02-22T14:18:04.113Z,8.00
2023-02-22T14:20:38.508Z,7.93
2023-02-22T14:23:29.024Z,7.88
2023-02-22T14:26:10.713Z,7.85
2023-02-22T14:28:48.480Z,7.99
2023-02-22T14:31:34.558Z,8.03
2023-02-22T14:34:13.110Z,7.91
2023-02-22T14:37:10.093Z,7.96
2023-02-22T14:39:43.262Z,7.83
2023-02-22T14:42:34.397Z,7.75
2023-02-22T14:45:14.311Z,7.74
2023-02-22T14:48:00.831Z,7.81
2023-02-22T14:50:41.886Z,7.70
2023-02-22T14:53:54.848Z,7.78
2023-02-22T14:56:35.786Z,7.75
2023-02-22T14:59:20.183Z,7.67
2023-02-22T15:01:58.675Z,7.66
2023-02-22T15:04:35.468Z,7.64
2023-02-22T15:07:31.024Z,7.59
2023-02-22T15:10:32.740Z,7.63
2023-02-22T15:13:10.758Z,7.49
2023-02-22T15:15:46.026Z,7.45
2023-02-22T15:18:37.780Z,7.43
2023-02-22T15:21:15.610Z,7.40
2023-02-22T15:23:53.616Z,7.33
2023-02-22T15:26:25.427Z,7.32
2023-02-22T15:28:59.527Z,7.31
2023-02-22T15:31:32.909Z,7.28
2023-02-22T15:34:31.567Z,7.26
2023-02-22T15:37:24.594Z,7.22
2023-02-22T15:40:05.082Z,7.21
2023-02-22T15:42:42.818Z,7.18
2023-02-22T15:45:22.484Z,7.16
2023-02-22T15:47:51.074Z,7.13
2023-02-22T15:50:26.206Z,7.15
2023-02-22T15:53:02.179Z,7.11
2023-02-22T15:55:34.968Z,7.08
2023-02-22T15:58:23.818Z,7.05
2023-02-22T16:00:58.373Z,7.02
2023-02-22T16:03:32.684Z,7.01
2023-02-22T16:06:00.257Z,6.99
2023-02-22T16:08:54.389Z,6.99
2023-02-22T16:11:30.509Z,6.96
2023-02-22T16:14:05.301Z,6.95
2023-02-22T16:16:42.805Z,6.92
2023-02-22T16:19:31.656Z,6.91
2023-02-22T16:22:02.746Z,6.88
2023-02-22T16:24:32.865Z,6.85
2023-02-22T16:27:15.494Z,6.83
2023-02-22T16:29:43.455Z,6.83
2023-02-22T16:32:11.086Z,6.80
2023-02-22T16:34:38.610Z,6.80
2023-02-22T16:37:21.596Z,6.75
2023-02-22T16:39:52.572Z,6.73
2023-02-22T16:42:23.679Z,6.72
2023-02-22T16:44:51.592Z,6.73
2023-02-22T16:47:19.709Z,6.73
2023-02-22T16:49:55.427Z,6.76
2023-02-22T16:52:22.787Z,6.74
2023-02-22T16:54:50.883Z,6.66
2023-02-22T16:57:21.385Z,6.60
2023-02-22T16:59:51.588Z,6.56
2023-02-22T17:02:20.932Z,6.55
2023-02-22T17:04:49.073Z,6.53
2023-02-22T17:07:19.602Z,6.51
2023-02-22T17:09:46.941Z,6.49
2023-02-22T17:12:14.001Z,6.47
2023-02-22T17:14:44.336Z,6.46
2023-02-22T17:17:13.003Z,6.42
2023-02-22T17:19:40.596Z,6.42
2023-02-22T17:22:09.148Z,6.41
2023-02-22T17:24:38.600Z,6.39
2023-02-22T17:27:05.498Z,6.37
2023-02-22T17:29:33.844Z,6.35
2023-02-22T17:32:03.977Z,6.32
2023-02-22T17:34:32.163Z,6.31
2023-02-22T17:37:00.567Z,6.28
2023-02-22T17:39:27.646Z,6.28
2023-02-22T17:41:57.102Z,6.27
2023-02-22T17:44:25.714Z,6.26
2023-02-22T17:46:53.185Z,6.24
2023-02-22T17:49:21.238Z,6.21
2023-02-22T17:51:53.103Z,6.19
2023-02-22T17:54:20.625Z,6.20
2023-02-22T17:56:52.223Z,6.18
2023-02-22T17:59:19.019Z,6.16
2023-02-22T18:01:46.066Z,6.14
2023-02-22T18:04:13.070Z,6.14
2023-02-22T18:06:40.496Z,6.13
2023-02-22T18:09:09.646Z,6.09
2023-02-22T18:11:38.715Z,6.09
2023-02-22T18:14:10.045Z,6.09
2023-02-22T18:16:38.398Z,6.08
2023-02-22T18:19:05.650Z,6.08
2023-02-22T18:21:32.771Z,6.20
2023-02-22T18:23:59.843Z,6.28
2023-02-22T18:26:27.295Z,6.29
2023-02-22T18:28:54.995Z,6.25
2023-02-22T18:31:23.149Z,6.24
2023-02-22T18:33:53.017Z,6.20
2023-02-22T18:36:24.311Z,6.19
2023-02-22T18:38:54.605Z,6.14
2023-02-22T18:41:26.507Z,6.09
2023-02-22T18:43:59.913Z,6.11
2023-02-22T18:46:29.495Z,6.07
2023-02-22T18:48:57.162Z,6.05
2023-02-22T18:51:25.398Z,6.04
2023-02-22T18:53:57.140Z,6.03
2023-02-22T18:56:29.002Z,6.00
2023-02-22T18:58:58.261Z,5.98
2023-02-22T19:01:26.383Z,5.96
2023-02-22T19:03:54.902Z,5.92
2023-02-22T19:06:22.709Z,5.90
2023-02-22T19:08:50.516Z,5.88
2023-02-22T19:11:21.129Z,5.85
2023-02-22T19:13:50.673Z,5.83
2023-02-22T19:16:22.363Z,5.81
2023-02-22T19:18:52.059Z,5.79
2023-02-22T19:21:20.160Z,5.74
2023-02-22T19:23:48.279Z,5.74
2023-02-22T19:26:24.425Z,5.70
2023-02-22T19:28:54.852Z,5.67
2023-02-22T19:31:30.689Z,5.65
2023-02-22T19:34:21.970Z,5.61
2023-02-22T19:36:50.740Z,5.55
2023-02-22T19:39:20.291Z,5.53
2023-02-22T19:41:47.573Z,5.50
2023-02-22T19:44:14.736Z,5.47
2023-02-22T19:46:42.240Z,5.42
2023-02-22T19:49:10.393Z,5.40
2023-02-22T19:51:40.124Z,5.36
2023-02-22T19:54:11.504Z,5.35
2023-02-22T19:56:40.157Z,5.30
2023-02-22T19:59:12.777Z,5.26
2023-02-22T20:01:43.513Z,5.19
2023-02-22T20:04:17.909Z,5.22
2023-02-22T20:06:46.587Z,5.16
2023-02-22T20:09:17.350Z,5.07
2023-02-22T20:11:46.378Z,5.03
2023-02-22T20:14:18.172Z,5.02
2023-02-22T20:16:45.428Z,5.04
2023-02-22T20:19:13.805Z,5.02
2023-02-22T20:21:40.740Z,5.03
2023-02-22T20:24:18.493Z,5.01
2023-02-22T20:26:46.707Z,5.01
2023-02-22T20:29:14.537Z,5.01
2023-02-22T20:31:42.805Z,5.02
2023-02-22T20:34:10.980Z,5.01
2023-02-22T20:36:39.779Z,5.01
2023-02-22T20:39:12.743Z,5.01
2023-02-22T20:41:42.557Z,5.02
2023-02-22T20:44:12.923Z,5.00
2023-02-22T20:46:39.857Z,4.99
2023-02-22T20:49:07.655Z,4.99
2023-02-22T20:51:34.962Z,4.97
2023-02-22T20:54:02.425Z,4.94
2023-02-22T20:56:30.581Z,4.93
2023-02-22T20:59:00.191Z,4.92
2023-02-22T21:01:27.730Z,4.92
2023-02-22T21:03:59.933Z,4.93
2023-02-22T21:06:28.193Z,4.98
2023-02-22T21:08:57.432Z,5.01
2023-02-22T21:11:26.896Z,4.98
2023-02-22T21:13:53.943Z,4.96
2023-02-22T21:16:25.433Z,5.04
2023-02-22T21:18:54.612Z,4.99
2023-02-22T21:21:23.068Z,4.95
2023-02-22T21:23:52.693Z,4.93
2023-02-22T21:26:26.660Z,4.99
2023-02-22T21:28:54.703Z,4.93
2023-02-22T21:31:23.958Z,4.91
2023-02-22T21:33:53.726Z,4.87
2023-02-22T21:36:24.489Z,4.89
2023-02-22T21:38:54.737Z,4.89
2023-02-22T21:41:26.845Z,4.86
2023-02-22T21:43:55.360Z,4.78
2023-02-22T21:46:22.749Z,4.76
2023-02-22T21:48:50.972Z,4.79
2023-02-22T21:51:22.861Z,4.78
2023-02-22T21:53:53.042Z,4.78
2023-02-22T21:56:31.943Z,4.76
2023-02-22T21:59:13.346Z,4.78
2023-02-22T22:01:49.477Z,4.78
2023-02-22T22:04:28.014Z,4.80
2023-02-22T22:06:56.700Z,4.76
2023-02-22T22:09:28.229Z,4.71
2023-02-22T22:12:00.806Z,4.70
2023-02-22T22:14:28.054Z,4.65
2023-02-22T22:17:00.399Z,4.64
2023-02-22T22:19:29.205Z,4.64
2023-02-22T22:21:57.441Z,4.61
2023-02-22T22:24:25.010Z,4.61
2023-02-22T22:26:55.072Z,4.63
2023-02-22T22:29:23.812Z,4.64
2023-02-22T22:31:51.773Z,4.66
2023-02-22T22:34:18.943Z,4.67
2023-02-22T22:36:45.837Z,4.69
2023-02-22T22:39:12.938Z,4.72
2023-02-22T22:41:46.019Z,4.75
2023-02-22T22:44:14.688Z,4.71
2023-02-22T22:46:42.840Z,4.66
2023-02-22T22:49:12.754Z,4.65
2023-02-22T22:51:40.415Z,4.63
2023-02-22T22:54:08.947Z,4.64
2023-02-22T22:56:37.266Z,4.61
2023-02-22T22:59:09.230Z,4.59
2023-02-22T23:01:40.046Z,4.57
2023-02-22T23:04:10.041Z,4.57
2023-02-22T23:06:43.832Z,4.60
2023-02-22T23:09:18.555Z,4.63
2023-02-22T23:11:50.007Z,4.62
2023-02-22T23:14:18.794Z,4.58
2023-02-22T23:16:51.013Z,4.60
2023-02-22T23:19:18.842Z,4.59
2023-02-22T23:21:47.767Z,4.57
2023-02-22T23:24:18.306Z,4.62
2023-02-22T23:26:48.407Z,4.56
2023-02-22T23:29:20.849Z,4.54
2023-02-22T23:31:49.479Z,4.47
2023-02-22T23:34:18.267Z,4.40
2023-02-22T23:36:46.096Z,4.35
2023-02-22T23:39:15.042Z,4.31
2023-02-22T23:41:41.913Z,4.30
2023-02-22T23:44:16.607Z,4.29
2023-02-22T23:46:47.303Z,4.26
2023-02-22T23:49:19.406Z,4.17
2023-02-22T23:51:47.237Z,4.18
2023-02-22T23:54:21.134Z,4.16
2023-02-22T23:56:57.791Z,4.10
2023-02-22T23:59:26.234Z,4.09
